createdAt,value
2023-04-06T00:02:12.426Z,26.13
2023-04-06T00:04:39.283Z,24.30
2023-04-06T00:07:06.183Z,26.00
2023-04-06T00:09:33.074Z,24.95
2023-04-06T00:11:59.945Z,23.35
2023-04-06T00:14:26.818Z,25.27
2023-04-06T00:16:53.764Z,24.25
2023-04-06T00:19:20.651Z,21.83
2023-04-06T00:21:47.551Z,24.98
2023-04-06T00:24:14.382Z,27.35
2023-04-06T00:26:41.267Z,26.20
2023-04-06T00:29:08.303Z,29.15
2023-04-06T00:31:35.462Z,28.70
2023-04-06T00:34:02.386Z,28.35
2023-04-06T00:36:29.282Z,26.88
2023-04-06T00:38:56.183Z,29.67
2023-04-06T00:41:23.169Z,29.15
2023-04-06T00:43:50.080Z,32.10
2023-04-06T00:46:17.021Z,33.42
2023-04-06T00:48:43.960Z,35.10
2023-04-06T00:51:10.852Z,36.03
2023-04-06T00:53:37.788Z,36.10
2023-04-06T00:56:04.934Z,29.85
2023-04-06T00:58:31.913Z,34.67
2023-04-06T01:00:59.396Z,35.13
2023-04-06T01:03:26.288Z,30.95
2023-04-06T01:05:53.197Z,32.33
2023-04-06T01:08:20.070Z,32.10
2023-04-06T01:10:46.939Z,28.23
2023-04-06T01:13:13.846Z,27.63
2023-04-06T01:15:40.932Z,28.95
2023-04-06T01:18:10.119Z,31.23
2023-04-06T01:20:37.293Z,26.67
2023-04-06T01:23:04.285Z,28.38
2023-04-06T01:25:31.157Z,29.63
2023-04-06T01:27:58.037Z,26.65
2023-04-06T01:30:24.994Z,29.10
2023-04-06T01:32:52.026Z,28.75
2023-04-06T01:35:19.978Z,26.02
2023-04-06T01:37:46.930Z,26.57
2023-04-06T01:40:13.899Z,23.65
2023-04-06T01:42:40.780Z,28.77
2023-04-06T01:45:08.136Z,23.23
2023-04-06T01:47:35.026Z,25.30
2023-04-06T01:50:02.006Z,25.88
2023-04-06T01:52:28.872Z,24.70
2023-04-06T01:54:55.708Z,28.27
2023-04-06T01:57:22.605Z,22.85
2023-04-06T01:59:49.432Z,26.10
2023-04-06T02:02:16.356Z,26.38
2023-04-06T02:04:43.260Z,31.40
2023-04-06T02:07:10.334Z,23.23
2023-04-06T02:09:37.395Z,25.52
2023-04-06T02:12:04.425Z,30.42
2023-04-06T02:14:31.279Z,30.67
2023-04-06T02:16:58.230Z,25.60
2023-04-06T02:19:25.136Z,29.73
2023-04-06T02:21:52.055Z,36.70
2023-04-06T02:24:18.919Z,34.73
2023-04-06T02:26:45.820Z,34.97
2023-04-06T02:29:12.676Z,30.95
2023-04-06T02:31:39.580Z,33.50
2023-04-06T02:34:06.525Z,33.53
2023-04-06T02:36:33.401Z,33.87
2023-04-06T02:39:00.271Z,34.05
2023-04-06T02:41:27.173Z,35.60
2023-04-06T02:43:54.033Z,34.10
2023-04-06T02:46:20.910Z,36.93
2023-04-06T02:48:47.877Z,40.15
2023-04-06T02:51:14.745Z,35.03
2023-04-06T02:53:41.601Z,36.15
2023-04-06T02:56:08.574Z,39.00
2023-04-06T02:58:35.478Z,34.80
2023-04-06T03:01:02.426Z,32.88
2023-04-06T03:03:29.383Z,36.38
2023-04-06T03:05:56.337Z,35.97
2023-04-06T03:08:23.235Z,38.80
2023-04-06T03:10:50.118Z,34.63
2023-04-06T03:13:17.118Z,32.03
2023-04-06T03:15:44.056Z,32.00
2023-04-06T03:18:10.965Z,33.38
2023-04-06T03:20:37.855Z,31.83
2023-04-06T03:23:04.758Z,33.35
2023-04-06T03:25:31.600Z,31.95
2023-04-06T03:27:58.490Z,35.53
2023-04-06T03:30:25.388Z,34.80
2023-04-06T03:32:52.304Z,34.95
2023-04-06T03:35:19.192Z,37.65
2023-04-06T03:37:46.106Z,32.83
2023-04-06T03:40:13.079Z,32.20
2023-04-06T03:42:39.961Z,32.70
2023-04-06T03:45:07.400Z,35.10
2023-04-06T03:47:34.303Z,35.45
2023-04-06T03:50:01.252Z,35.73
2023-04-06T03:52:28.188Z,32.08
2023-04-06T03:54:55.060Z,30.88
2023-04-06T03:57:21.933Z,28.27
2023-04-06T03:59:48.791Z,29.88
2023-04-06T04:02:15.709Z,32.17
2023-04-06T04:04:42.629Z,31.52
2023-04-06T04:07:09.535Z,30.45
2023-04-06T04:09:36.400Z,31.00
2023-04-06T04:12:03.416Z,31.63
2023-04-06T04:14:30.298Z,33.53
2023-04-06T04:16:57.284Z,35.58
2023-04-06T04:19:24.248Z,38.03
2023-04-06T04:21:51.149Z,40.75
2023-04-06T04:24:18.061Z,42.60
2023-04-06T04:26:44.940Z,36.28
2023-04-06T04:29:11.843Z,35.60
2023-04-06T04:31:38.816Z,35.10
2023-04-06T04:34:05.805Z,35.30
2023-04-06T04:36:32.684Z,38.63
2023-04-06T04:38:59.543Z,34.22
2023-04-06T04:41:26.394Z,32.38
2023-04-06T04:43:53.248Z,33.13
2023-04-06T04:46:20.266Z,31.90
2023-04-06T04:48:47.295Z,33.40
2023-04-06T04:51:14.185Z,30.55
2023-04-06T04:53:41.021Z,28.42
2023-04-06T04:56:07.916Z,27.75
2023-04-06T04:58:34.775Z,23.98
2023-04-06T05:01:01.690Z,24.05
2023-04-06T05:03:28.800Z,25.25
2023-04-06T05:05:55.816Z,24.70
2023-04-06T05:08:22.703Z,21.35
2023-04-06T05:10:49.648Z,23.95
2023-04-06T05:13:16.575Z,20.97
2023-04-06T05:15:43.820Z,20.15
2023-04-06T05:18:11.416Z,19.15
2023-04-06T05:20:41.239Z,18.08
2023-04-06T05:23:08.121Z,19.77
2023-04-06T05:25:35.180Z,16.85
2023-04-06T05:28:02.288Z,19.30
2023-04-06T05:30:29.206Z,17.60
2023-04-06T05:32:56.399Z,15.88
2023-04-06T05:35:23.391Z,13.60
2023-04-06T05:37:50.374Z,12.90
2023-04-06T05:40:17.348Z,14.90
2023-04-06T05:42:44.282Z,13.50
2023-04-06T05:45:12.326Z,13.20
2023-04-06T05:47:39.236Z,13.48
2023-04-06T05:50:06.709Z,11.30
2023-04-06T05:52:34.083Z,12.32
2023-04-06T05:55:00.977Z,11.50
2023-04-06T05:57:27.957Z,13.63
2023-04-06T05:59:54.834Z,11.18
2023-04-06T06:02:22.114Z,13.95
2023-04-06T06:04:49.380Z,12.45
2023-04-06T06:07:16.405Z,11.68
2023-04-06T06:09:43.320Z,11.80
2023-04-06T06:12:11.474Z,11.73
2023-04-06T06:14:40.221Z,10.90
2023-04-06T06:17:07.104Z,9.80
2023-04-06T06:19:34.047Z,11.60
2023-04-06T06:22:00.905Z,12.00
2023-04-06T06:24:29.575Z,9.35
2023-04-06T06:26:57.753Z,8.32
2023-04-06T06:29:24.615Z,10.52
2023-04-06T06:31:51.527Z,7.82
2023-04-06T06:34:18.472Z,7.95
2023-04-06T06:36:47.585Z,9.23
2023-04-06T06:39:15.341Z,7.82
2023-04-06T06:41:42.259Z,8.52
2023-04-06T06:44:09.425Z,9.27
2023-04-06T06:46:36.565Z,8.30
2023-04-06T06:49:03.463Z,12.17
2023-04-06T06:51:30.499Z,8.30
2023-04-06T06:53:57.490Z,10.18
2023-04-06T06:56:24.396Z,11.48
2023-04-06T06:58:51.363Z,10.27
2023-04-06T07:01:18.416Z,10.32
2023-04-06T07:03:45.442Z,13.38
2023-04-06T07:06:12.471Z,15.90
2023-04-06T07:08:39.414Z,13.00
2023-04-06T07:11:06.348Z,11.48
2023-04-06T07:13:33.245Z,16.05
2023-04-06T07:16:00.166Z,13.02
2023-04-06T07:18:27.187Z,13.25
2023-04-06T07:20:54.162Z,13.20
2023-04-06T07:23:21.107Z,12.90
2023-04-06T07:25:48.064Z,15.98
2023-04-06T07:28:15.005Z,16.75
2023-04-06T07:30:41.881Z,14.82
2023-04-06T07:33:08.825Z,15.13
2023-04-06T07:35:35.969Z,15.73
2023-04-06T07:38:02.968Z,14.10
2023-04-06T07:40:30.036Z,14.07
2023-04-06T07:42:58.074Z,11.75
2023-04-06T07:45:25.266Z,13.00
2023-04-06T07:47:52.358Z,23.30
2023-04-06T07:50:19.336Z,17.67
2023-04-06T07:52:46.290Z,11.23
2023-04-06T07:55:13.261Z,11.73
2023-04-06T07:57:40.148Z,11.80
2023-04-06T08:00:07.608Z,10.27
2023-04-06T08:02:34.631Z,10.05
2023-04-06T08:05:01.870Z,11.57
2023-04-06T08:07:28.848Z,13.07
2023-04-06T08:09:55.809Z,13.15
2023-04-06T08:12:22.681Z,7.45
2023-04-06T08:14:53.179Z,10.68
2023-04-06T08:17:20.346Z,8.90
2023-04-06T08:19:47.306Z,10.30
2023-04-06T08:22:14.204Z,8.90
2023-04-06T08:24:41.272Z,8.40
2023-04-06T08:27:08.216Z,8.00
2023-04-06T08:29:35.129Z,7.90
2023-04-06T08:32:02.081Z,10.20
2023-04-06T08:34:29.022Z,9.20
2023-04-06T08:36:55.963Z,14.18
2023-04-06T08:39:22.819Z,11.93
2023-04-06T08:41:49.996Z,8.80
2023-04-06T08:44:18.175Z,12.23
2023-04-06T08:46:45.182Z,8.68
2023-04-06T08:49:13.372Z,11.38
2023-04-06T08:51:41.081Z,10.35
2023-04-06T08:54:08.350Z,9.27
2023-04-06T08:56:39.116Z,10.55
2023-04-06T08:59:07.417Z,10.05
2023-04-06T09:01:39.766Z,7.68
2023-04-06T09:04:09.524Z,10.07
2023-04-06T09:06:36.745Z,10.32
2023-04-06T09:09:04.155Z,10.30
2023-04-06T09:11:41.943Z,8.07
2023-04-06T09:14:09.042Z,8.63
2023-04-06T09:16:43.676Z,7.78
2023-04-06T09:19:11.243Z,7.17
2023-04-06T09:21:38.900Z,6.78
2023-04-06T09:24:07.648Z,8.30
2023-04-06T09:26:46.739Z,8.00
2023-04-06T09:29:23.993Z,7.53
2023-04-06T09:31:51.013Z,6.70
2023-04-06T09:34:24.342Z,7.35
2023-04-06T09:36:51.461Z,8.57
2023-04-06T09:39:22.203Z,8.52
2023-04-06T09:41:52.147Z,6.20
2023-04-06T09:44:19.645Z,6.82
2023-04-06T09:46:59.556Z,7.93
2023-04-06T09:49:32.475Z,6.65
2023-04-06T09:52:04.763Z,7.50
2023-04-06T09:54:32.524Z,8.75
2023-04-06T09:57:02.629Z,8.30
2023-04-06T09:59:54.301Z,7.43
2023-04-06T10:02:35.303Z,7.57
2023-04-06T10:05:27.782Z,7.53
2023-04-06T10:08:00.900Z,6.90
2023-04-06T10:10:29.577Z,7.30
2023-04-06T10:12:57.302Z,8.57
2023-04-06T10:15:24.420Z,6.78
2023-04-06T10:17:52.385Z,9.25
2023-04-06T10:20:37.754Z,7.95
2023-04-06T10:23:24.098Z,7.30
2023-04-06T10:25:58.870Z,7.13
2023-04-06T10:28:27.107Z,12.52
2023-04-06T10:31:02.870Z,8.00
2023-04-06T10:33:29.811Z,8.00
2023-04-06T10:35:56.990Z,7.50
2023-04-06T10:38:44.244Z,7.85
2023-04-06T10:41:13.082Z,8.02
2023-04-06T10:43:41.901Z,7.40
2023-04-06T10:46:10.821Z,9.27
2023-04-06T10:48:45.793Z,7.60
2023-04-06T10:51:14.928Z,9.85
2023-04-06T10:53:49.231Z,9.55
2023-04-06T10:56:18.406Z,9.65
2023-04-06T10:58:50.001Z,8.70
2023-04-06T11:01:18.736Z,9.00
2023-04-06T11:03:53.428Z,8.57
2023-04-06T11:06:25.148Z,9.48
2023-04-06T11:08:52.876Z,9.35
2023-04-06T11:11:22.507Z,9.30
2023-04-06T11:13:54.561Z,10.30
2023-04-06T11:16:24.590Z,11.38
2023-04-06T11:19:09.616Z,9.52
2023-04-06T11:21:37.947Z,10.75
2023-04-06T11:24:11.866Z,11.23
2023-04-06T11:26:59.338Z,9.95
2023-04-06T11:29:31.931Z,11.10
2023-04-06T11:32:06.477Z,13.60
2023-04-06T11:34:40.791Z,11.47
2023-04-06T11:37:12.206Z,10.23
2023-04-06T11:39:52.826Z,8.88
2023-04-06T11:42:23.787Z,10.50
2023-04-06T11:44:57.934Z,10.30
2023-04-06T11:47:34.300Z,8.53
2023-04-06T11:50:15.386Z,11.03
2023-04-06T11:52:43.246Z,9.10
2023-04-06T11:55:14.926Z,12.07
2023-04-06T11:57:42.629Z,11.02
2023-04-06T12:00:10.782Z,10.25
2023-04-06T12:02:38.685Z,8.90
2023-04-06T12:05:06.849Z,9.90
2023-04-06T12:07:33.887Z,8.32
2023-04-06T12:10:02.996Z,9.27
2023-04-06T12:12:29.980Z,7.97
2023-04-06T12:14:57.461Z,10.18
2023-04-06T12:17:24.577Z,8.20
2023-04-06T12:19:51.519Z,10.55
2023-04-06T12:22:19.341Z,9.82
2023-04-06T12:24:46.290Z,8.90
2023-04-06T12:27:13.196Z,10.13
2023-04-06T12:29:40.209Z,8.40
2023-04-06T12:32:07.246Z,8.68
2023-04-06T12:34:34.186Z,9.45
2023-04-06T12:37:01.182Z,9.70
2023-04-06T12:39:29.216Z,9.75
2023-04-06T12:41:56.114Z,8.80
2023-04-06T12:44:24.750Z,8.00
2023-04-06T12:46:52.451Z,10.55
2023-04-06T12:49:19.373Z,10.18
2023-04-06T12:51:46.529Z,9.45
2023-04-06T12:54:13.412Z,11.02
2023-04-06T12:56:40.583Z,7.90
2023-04-06T12:59:07.595Z,7.15
2023-04-06T13:01:34.607Z,10.20
2023-04-06T13:04:01.524Z,8.83
2023-04-06T13:06:28.665Z,8.30
2023-04-06T13:08:56.200Z,7.70
2023-04-06T13:11:23.134Z,7.85
2023-04-06T13:13:50.038Z,8.80
2023-04-06T13:16:17.140Z,8.70
2023-04-06T13:18:44.301Z,7.72
2023-04-06T13:21:15.097Z,7.50
2023-04-06T13:23:42.025Z,9.70
2023-04-06T13:26:09.109Z,8.50
2023-04-06T13:28:37.312Z,7.13
2023-04-06T13:31:04.383Z,8.73
2023-04-06T13:33:31.917Z,8.65
2023-04-06T13:36:00.212Z,7.50
2023-04-06T13:38:27.129Z,6.90
2023-04-06T13:40:54.090Z,7.57
2023-04-06T13:43:21.180Z,7.20
2023-04-06T13:45:53.167Z,8.83
2023-04-06T13:48:20.385Z,7.75
2023-04-06T13:50:47.535Z,7.53
2023-04-06T13:53:14.993Z,7.15
2023-04-06T13:55:42.032Z,7.38
2023-04-06T13:58:09.018Z,8.10
2023-04-06T14:00:36.370Z,7.47
2023-04-06T14:03:03.533Z,8.45
2023-04-06T14:05:34.236Z,7.45
2023-04-06T14:08:01.183Z,6.90
2023-04-06T14:10:28.074Z,8.50
2023-04-06T14:12:55.027Z,8.60
2023-04-06T14:15:21.958Z,8.60
2023-04-06T14:17:49.042Z,7.28
2023-04-06T14:20:15.903Z,7.82
2023-04-06T14:22:43.095Z,9.30
2023-04-06T14:25:10.534Z,8.80
2023-04-06T14:27:37.416Z,7.60
2023-04-06T14:30:04.622Z,8.05
2023-04-06T14:32:31.510Z,7.60
2023-04-06T14:34:58.425Z,7.90
2023-04-06T14:37:25.295Z,8.63
2023-04-06T14:39:52.241Z,6.60
2023-04-06T14:42:19.090Z,7.20
2023-04-06T14:44:45.992Z,7.60
2023-04-06T14:47:13.080Z,6.68
2023-04-06T14:49:39.926Z,7.57
2023-04-06T14:52:06.793Z,7.38
2023-04-06T14:54:33.731Z,6.93
2023-04-06T14:57:00.876Z,7.38
2023-04-06T15:02:14.618Z,8.80
2023-04-06T15:04:41.520Z,7.75
2023-04-06T15:07:08.363Z,6.82
2023-04-06T15:09:36.730Z,8.38
2023-04-06T15:12:03.728Z,8.50
2023-04-06T15:14:30.601Z,7.97
2023-04-06T15:16:57.495Z,7.45
2023-04-06T15:19:24.370Z,8.52
2023-04-06T15:21:51.208Z,7.70
2023-04-06T15:24:18.137Z,7.65
2023-04-06T15:26:45.002Z,8.13
2023-04-06T15:29:11.873Z,9.48
2023-04-06T15:31:38.879Z,8.07
2023-04-06T15:34:06.938Z,9.20
2023-04-06T15:36:34.152Z,7.97
2023-04-06T15:39:01.523Z,7.60
2023-04-06T15:41:28.421Z,6.95
2023-04-06T15:43:55.798Z,8.40
2023-04-06T15:46:23.347Z,8.33
2023-04-06T15:48:50.214Z,6.72
2023-04-06T15:51:17.127Z,8.90
2023-04-06T15:53:44.423Z,7.20
2023-04-06T15:56:11.339Z,7.60
2023-04-06T15:58:38.274Z,7.07
2023-04-06T16:01:16.768Z,6.90
2023-04-06T16:03:44.520Z,8.18
2023-04-06T16:06:11.659Z,8.63
2023-04-06T16:08:40.817Z,8.00
2023-04-06T16:11:08.395Z,6.85
2023-04-06T16:13:36.307Z,9.48
2023-04-06T16:16:03.285Z,8.02
2023-04-06T16:18:30.385Z,7.50
2023-04-06T16:20:57.792Z,7.77
2023-04-06T16:23:24.706Z,6.40
2023-04-06T16:25:51.645Z,8.40
2023-04-06T16:28:18.491Z,9.20
2023-04-06T16:30:46.694Z,9.30
2023-04-06T16:33:14.010Z,9.75
2023-04-06T16:35:44.905Z,8.73
2023-04-06T16:38:12.567Z,9.50
2023-04-06T16:40:39.675Z,9.70
2023-04-06T16:43:06.583Z,7.90
2023-04-06T16:45:33.501Z,9.73
2023-04-06T16:48:00.418Z,9.35
2023-04-06T16:50:27.327Z,8.27
2023-04-06T16:52:54.193Z,8.32
2023-04-06T16:55:21.077Z,9.00
2023-04-06T16:57:47.917Z,10.27
2023-04-06T17:00:15.487Z,8.65
2023-04-06T17:02:42.591Z,7.20
2023-04-06T17:05:09.692Z,8.02
2023-04-06T17:07:36.547Z,8.45
2023-04-06T17:10:03.940Z,10.35
2023-04-06T17:12:31.080Z,9.00
2023-04-06T17:14:58.146Z,8.20
2023-04-06T17:17:25.082Z,9.63
2023-04-06T17:19:52.001Z,9.57
2023-04-06T17:22:18.877Z,9.07
2023-04-06T17:24:45.757Z,8.45
2023-04-06T17:27:12.654Z,8.70
2023-04-06T17:29:39.548Z,11.20
2023-04-06T17:32:06.408Z,10.98
2023-04-06T17:34:33.262Z,12.05
2023-04-06T17:37:00.119Z,10.52
2023-04-06T17:39:26.949Z,10.43
2023-04-06T17:41:53.826Z,8.10
2023-04-06T17:44:20.691Z,10.95
2023-04-06T17:46:47.657Z,7.90
2023-04-06T17:49:14.652Z,10.05
2023-04-06T17:51:41.548Z,9.73
2023-04-06T17:54:08.443Z,12.25
2023-04-06T17:56:35.336Z,10.10
2023-04-06T17:59:02.240Z,10.63
2023-04-06T18:01:29.269Z,12.02
2023-04-06T18:03:56.164Z,11.80
2023-04-06T18:06:25.521Z,11.50
2023-04-06T18:08:52.852Z,12.18
2023-04-06T18:11:20.651Z,11.48
2023-04-06T18:13:47.794Z,13.10
2023-04-06T18:16:15.458Z,13.00
2023-04-06T18:18:42.310Z,12.38
2023-04-06T18:21:09.243Z,12.27
2023-04-06T18:23:36.189Z,11.20
2023-04-06T18:26:04.387Z,10.02
2023-04-06T18:28:31.268Z,10.80
2023-04-06T18:30:59.100Z,10.27
2023-04-06T18:33:26.671Z,12.52
2023-04-06T18:35:56.614Z,11.70
2023-04-06T18:38:23.984Z,12.95
2023-04-06T18:40:50.914Z,12.20
2023-04-06T18:43:18.028Z,12.18
2023-04-06T18:45:44.886Z,13.35
2023-04-06T18:48:12.096Z,11.45
2023-04-06T18:50:39.074Z,13.10
2023-04-06T18:53:05.974Z,13.70
2023-04-06T18:55:33.419Z,12.38
2023-04-06T18:58:00.338Z,12.37
2023-04-06T19:00:27.259Z,11.43
2023-04-06T19:02:54.496Z,11.50
2023-04-06T19:05:21.694Z,11.23
2023-04-06T19:07:48.599Z,13.02
2023-04-06T19:10:15.538Z,11.82
2023-04-06T19:12:42.382Z,14.77
2023-04-06T19:15:09.916Z,14.43
2023-04-06T19:17:36.781Z,11.30
2023-04-06T19:20:03.968Z,13.70
2023-04-06T19:22:30.896Z,11.30
2023-04-06T19:24:57.774Z,10.77
2023-04-06T19:27:24.642Z,11.57
2023-04-06T19:29:52.382Z,12.50
2023-04-06T19:32:19.242Z,12.00
2023-04-06T19:34:46.173Z,10.68
2023-04-06T19:37:13.078Z,10.32
2023-04-06T19:39:39.965Z,11.60
2023-04-06T19:42:06.800Z,8.73
2023-04-06T19:44:33.698Z,9.90
2023-04-06T19:47:00.544Z,9.65
2023-04-06T19:49:27.468Z,10.95
2023-04-06T19:51:55.511Z,8.65
2023-04-06T19:54:23.327Z,8.83
2023-04-06T19:56:50.667Z,9.40
2023-04-06T19:59:17.609Z,9.90
2023-04-06T20:01:44.934Z,10.95
2023-04-06T20:04:12.034Z,9.32
2023-04-06T20:06:39.048Z,8.57
2023-04-06T20:09:05.870Z,9.60
2023-04-06T20:11:34.636Z,8.70
2023-04-06T20:14:01.635Z,8.07
2023-04-06T20:16:28.624Z,8.50
2023-04-06T20:18:55.588Z,9.98
2023-04-06T20:21:22.544Z,8.77
2023-04-06T20:23:49.404Z,8.50
2023-04-06T20:26:16.249Z,7.40
2023-04-06T20:28:43.118Z,8.95
2023-04-06T20:31:10.090Z,7.40
2023-04-06T20:33:37.479Z,8.00
2023-04-06T20:36:04.469Z,8.20
2023-04-06T20:38:33.760Z,7.55
2023-04-06T20:41:01.563Z,8.25
2023-04-06T20:43:28.553Z,8.25
2023-04-06T20:45:56.623Z,8.93
2023-04-06T20:48:24.258Z,9.80
2023-04-06T20:50:51.133Z,9.48
2023-04-06T20:53:20.076Z,10.63
2023-04-06T20:55:47.126Z,12.68
2023-04-06T20:58:16.134Z,12.73
2023-04-06T21:00:43.373Z,6.70
2023-04-06T21:03:10.665Z,8.80
2023-04-06T21:05:37.858Z,7.10
2023-04-06T21:08:04.743Z,7.07
2023-04-06T21:10:31.939Z,6.32
2023-04-06T21:12:58.896Z,7.80
2023-04-06T21:15:26.273Z,6.53
2023-04-06T21:17:53.193Z,6.78
2023-04-06T21:20:20.125Z,6.65
2023-04-06T21:22:46.968Z,6.93
2023-04-06T21:25:14.914Z,7.17
2023-04-06T21:27:42.268Z,8.82
2023-04-06T21:30:10.268Z,5.83
2023-04-06T21:32:37.219Z,7.60
2023-04-06T21:35:04.377Z,7.20
2023-04-06T21:37:31.255Z,5.50
2023-04-06T21:39:58.217Z,6.20
2023-04-06T21:42:25.268Z,6.40
2023-04-06T21:44:52.207Z,6.90
2023-04-06T21:47:19.106Z,9.75
2023-04-06T21:49:46.150Z,8.48
2023-04-06T21:52:13.150Z,5.90
2023-04-06T21:54:40.282Z,8.18
2023-04-06T21:57:07.230Z,6.95
2023-04-06T21:59:34.131Z,5.70
2023-04-06T22:02:01.077Z,6.60
2023-04-06T22:04:28.271Z,6.78
2023-04-06T22:06:55.199Z,6.38
2023-04-06T22:09:22.090Z,5.85
2023-04-06T22:11:48.932Z,6.10
2023-04-06T22:14:16.293Z,5.78
2023-04-06T22:16:43.302Z,5.25
2023-04-06T22:19:10.196Z,5.28
2023-04-06T22:21:37.066Z,5.30
2023-04-06T22:24:04.160Z,6.85
2023-04-06T22:26:31.004Z,5.60
2023-04-06T22:28:57.863Z,6.72
2023-04-06T22:31:24.729Z,6.30
2023-04-06T22:33:51.779Z,7.68
2023-04-06T22:36:18.679Z,8.67
2023-04-06T22:38:46.033Z,7.05
2023-04-06T22:41:12.903Z,5.80
2023-04-06T22:43:39.735Z,5.97
2023-04-06T22:46:06.982Z,5.55
2023-04-06T22:48:33.884Z,6.60
2023-04-06T22:51:00.718Z,6.22
2023-04-06T22:53:27.609Z,7.22
2023-04-06T22:55:54.452Z,6.63
2023-04-06T22:58:21.417Z,6.72
2023-04-06T23:00:48.280Z,6.97
2023-04-06T23:03:15.245Z,5.80
2023-04-06T23:05:42.251Z,7.65
2023-04-06T23:08:09.179Z,9.05
2023-04-06T23:10:36.035Z,8.10
2023-04-06T23:13:02.954Z,8.27
2023-04-06T23:15:29.795Z,6.10
2023-04-06T23:17:56.669Z,6.00
2023-04-06T23:20:23.544Z,6.00
2023-04-06T23:22:50.388Z,7.22
2023-04-06T23:25:17.273Z,7.70
2023-04-06T23:27:44.150Z,7.65
2023-04-06T23:30:11.198Z,9.82
2023-04-06T23:32:38.229Z,7.30
2023-04-06T23:35:05.573Z,6.30
2023-04-06T23:37:32.428Z,5.60
2023-04-06T23:39:59.267Z,5.68
2023-04-06T23:42:28.610Z,7.85
2023-04-06T23:44:56.083Z,5.90
2023-04-06T23:47:22.997Z,6.72
2023-04-06T23:49:49.883Z,6.18
2023-04-06T23:52:16.771Z,7.10
2023-04-06T23:54:43.597Z,8.70
2023-04-06T23:57:10.477Z,8.73
2023-04-06T23:59:37.346Z,7.82
